Airfield :
LOGIN :

Register | Disclaimer

   EN    FR    IT 

 










Legend :    VFR   Marginal VFR   IFR   Intensive IFR   Very Intensive IFR
Visi :
Ceiling :
>= 8 km
>= 3000ft
5 to 8 km
1000 to 3000 ft
1500m to 5 km
500 to 1000 ft
800 to 1500m
200 to 500 ft
< 800m
< 200 ft
Symbols :   Thunderstorms  Fog  Heavy snow  Heavy precipitations  Wind > 20 kt
SIGMETs :     Misc.  Thunderstorms  Icing  Turbulence  Mountain Waves  Volcanic Ashes







- Airport Elevation : 56 ft
- IATA code : BZR
- Download approach charts


LFMU - Beziers / Vias

CURRENT METAR :
  • 181530Z AUTO 28012KT CAVOK 13/06 Q1020 NOSIG

EXPIRED METARs :
  • 181500Z AUTO 29013KT CAVOK 14/06 Q1020 NOSIG
  • 181430Z AUTO 29013KT 250V310 CAVOK 14/06 Q1020 NOSIG
  • 181400Z AUTO 28013KT CAVOK 14/06 Q1020 NOSIG
  • 181330Z AUTO 27013KT CAVOK 14/06 Q1020 NOSIG
  • 181300Z AUTO 27014KT 240V300 CAVOK 14/06 Q1021 NOSIG

TAF TAF LFMU
Valid from the 18 at 15:00 until the 19 at 15:00 UTC


181400Z 1815/1915 27014KT CAVOK
BECMG 1908/1910 32015G25KT
ATIS : +33 4 67 90 88 88
No reported NOTAMs for that airfield.
4 SIGMETs reported for the Marseille FIR (LFMM) :
 
Severe mountain waves
LFMM SIGMET 15 VALID 181500/181800 LFPW
LFMM MARSEILLE FIR/UIR SEV MTW FCST E OF LINE N4115 E00900 - N4330 E00830 SFC/FL350 STNR NC=
Severe mountain waves
LFMM SIGMET 14 VALID 181500/181800 LFPW
LFMM MARSEILLE FIR/UIR SEV MTW FCST WI N4530 E00700 - N4400 E00700 - N4400 E00730 - N4330 E00630 - N4500 E00615 - N4530 E00700 SFC/FL300 STNR NC=
Severe turbulence
LFMM SIGMET 13 VALID 181300/181700 LFPW
LFMM MARSEILLE FIR/UIR SEV TURB FCST WI N4500 E00245 - N4630 E00300 - N4630 E00415 - N4530 E00400 - N4500 E00245 SFC/FL080 STNR WKN=
Severe turbulence
LFMM SIGMET 12 VALID 181300/181700 LFPW
LFMM MARSEILLE FIR/UIR SEV TURB FCST WI N4400 E00700 - N4315 E00945 - N4115 E00945 - N4115 E00845 - N4300 E00530 - N4400 E00700 SFC/FL060 STNR NC=



MET'MAP, your aeronautical weather chart ! - Copyright ORBIFLY December 2007 - Disclaimer

ORBIFLY MET'MAP TEAM :

Programming & Development : Alexandra Zaïnal
Concept & Development : Baudouin d'Aumeries
Co-Development & Prog : Marc-Olivier Méhu
Technical & hardware support : Manuel Goepfert

Contact : metmap@orbifly.com




SOURCES & CREDITS :

   NOAA